Terminal Aerodrome Forecast
Issued by NWS

Home | Current Version | Previous Version | Text Only | Print | Product List | Glossary On
Versions: 1 2 3 4 5 6 7 8 9 10 11 12 13 14
778
FTUS45 KRIW 260537
TAFBPI
TAF
KBPI 260537Z 2606/2706 33008KT P6SM FEW070
     FM261000 30004KT P6SM VCFG FEW005
     FM262000 24008KT P6SM FEW050 BKN150
     FM270300 17007KT P6SM SCT030 BKN070=

USA.gov is the U.S. government's official web portal to all federal, state and local government web resources and services.